x

9442396 - La Push, Wa (lapw1) Weather Station

2:36 - Sun 23rd Nov 2014 All times are PST. -8 hours from GMT.

  • Wind
    18mph, 25mph gusts
  • Sea Temp 49°f
  • Ar Temp 53°f
  • Sea Pressure 1017.4mb
  • 9442396 - La Push, Wa
  • 9442396 - La Push, Wa

More Historic Weather Station data

Upgrade to MSW Pro to gain access to the past 30 days of data for over 8000 Wavebouys and Weather Stations around the globe.

Join Pro

Comparision Forecast

View Surf forecast
   
Dom 11/23 2:36 18 25 mph 1017.4mb 49f 53f
2:30 20 25 mph 1017.3mb 49f 53f
2:24 17 23 mph 1017.4mb 49f 53f
2:18 17 22 mph 1017.4mb 50f 53f
2:12 15 21 mph 1017.6mb 50f 53f
2:06 17 22 mph 1017.7mb 50f 53f
2:00 15 22 mph 1017.8mb 50f 51f
1:36 10 14 mph 1018mb 51f 50f
1:30 8 10 mph 1018mb 52f 50f
1:24 8 10 mph 1018.1mb 52f 50f
1:18 7 11 mph 1018mb 52f 49f
1:12 6 10 mph 1018.2mb 52f 49f
1:06 9 11 mph 1018.4mb 52f 49f
1:00 9 13 mph 1018.6mb 52f 49f
12:36 24 34 mph 1019.7mb 52f 51f
12:30 9 15 mph 1018.5mb 52f 51f
12:24 13 16 mph 1018.5mb 52f 51f
12:18 13 18 mph 1018.5mb 52f 52f
12:12 11 16 mph 1018.4mb 52f 51f
12:06 11 20 mph 1018.3mb 52f 51f
12:00 16 25 mph 1018.4mb 52f 51f
Sáb 11/22 11:36 11 16 mph 1018.4mb 52f 51f
11:30 10 14 mph 1018.4mb 52f 51f
11:24 11 14 mph 1018.3mb 51f 51f
11:18 11 15 mph 1018.3mb 51f 51f
11:12 14 16 mph 1018.2mb 51f 51f
11:06 11 16 mph 1018.2mb 51f 51f
11:00 13 18 mph 1018.2mb 51f 51f
10:36 9 15 mph 1018.1mb 49f 52f
10:30 9 13 mph 1018mb 48f 53f
10:24 10 14 mph 1017.9mb 47f 52f
10:18 9 11 mph 1018mb 47f 52f
10:12 7 10 mph 1017.9mb 46f 53f
10:06 6 13 mph 1017.9mb 46f 51f
10:00 13 20 mph 1018mb 46f 53f
9:36 6 10 mph 1017.9mb 45f 53f
9:30 9 13 mph 1017.9mb 45f 53f
9:24 8 13 mph 1017.9mb 45f 53f
9:18 7 13 mph 1017.8mb 45f 53f
9:12 10 14 mph 1017.8mb 45f 52f
9:06 8 11 mph 1017.8mb 45f 52f
9:00 6 8 mph 1017.6mb 45f 52f
8:36 9 14 mph 1017.3mb 45f 53f
8:30 10 14 mph 1017.3mb 45f 53f
8:24 11 14 mph 1017.2mb 45f 53f
8:18 13 16 mph 1017.2mb 45f 53f
8:12 14 17 mph 1017.2mb 45f 53f
8:06 13 17 mph 1017mb 45f 52f
8:00 15 17 mph 1017mb 45f 51f
7:36 2 5 mph 1016.7mb 45f 47f
7:30 2 5 mph 1016.6mb 45f 46f
7:24 2 6 mph 1016.6mb 45f 45f
7:18 6 7 mph 1016.5mb 45f 45f
7:12 7 8 mph 1016.5mb 45f 45f
7:06 7 9 mph 1016.5mb 45f 45f
7:00 7 8 mph 1016.4mb 45f 45f
6:36 6 8 mph 1016.3mb 45f 45f
6:30 7 9 mph 1016.3mb 45f 45f
6:24 7 9 mph 1016.2mb 45f 45f
6:18 6 7 mph 1016.3mb 45f 45f
6:12 5 6 mph 1016.1mb 45f 46f
6:06 2 5 mph 1016.2mb 45f 46f
6:00 3 6 mph 1016mb 45f 46f
5:36 3 6 mph 1015.9mb 45f 46f
5:30 5 6 mph 1015.7mb 45f 47f
5:24 5 6 mph 1015.7mb 46f 47f
5:18 3 5 mph 1015.6mb 45f 47f
5:12 3 5 mph 1015.5mb 46f 48f
5:06 3 5 mph 1015.5mb 45f 48f
5:00 2 6 mph 1015.4mb 45f 49f
4:36 10 13 mph 1015.4mb 45f 51f
4:30 8 10 mph 1015.1mb 46f 51f
4:24 6 7 mph 1014.9mb 46f 51f
4:18 5 7 mph 1014.7mb 46f 50f
4:12 5 6 mph 1014.6mb 46f 49f
4:06 5 6 mph 1014.5mb 46f 49f
4:00 6 9 mph 1014.5mb 46f 49f
3:36 6 8 mph 1014.1mb 46f 52f
3:30 8 9 mph 1014.2mb 46f 52f
3:24 8 11 mph 1014.1mb 46f 52f
3:18 8 10 mph 1014mb 46f 52f
3:12 10 11 mph 1014mb 46f 52f
3:06 10 15 mph 1014mb 46f 52f
3:00 11 14 mph 1013.9mb 46f 52f
2:36 10 15 mph 1013.5mb 46f 52f
2:30 14 17 mph 1013.4mb 46f 52f
2:24 14 16 mph 1013.4mb 46f 52f
2:18 14 16 mph 1013.2mb 46f 52f
2:12 14 18 mph 1013.1mb 46f 52f
2:06 15 18 mph 1013mb 46f 52f
2:00 14 18 mph 1012.9mb 46f 52f
1:36 15 18 mph 1012.5mb 47f 52f
1:30 16 20 mph 1012.4mb 47f 52f
1:24 18 22 mph 1012.4mb 48f 52f
1:18 14 20 mph 1012.2mb 48f 52f
1:12 15 20 mph 1012mb 48f 52f
1:06 15 20 mph 1011.8mb 49f 52f
1:00 15 18 mph 1011.7mb 49f 52f
12:36 16 21 mph 1011.2mb 51f 52f
12:30 16 20 mph 1011.1mb 51f 51f
12:24 16 21 mph 1011mb 51f 51f
12:18 14 16 mph 1010.8mb 51f 51f
12:12 14 21 mph 1010.6mb 51f 51f
12:06 16 18 mph 1010.6mb 52f 52f
12:00 14 17 mph 1010.4mb 52f 52f
11:36 13 17 mph 1010mb 52f 52f
11:30 14 17 mph 1009.9mb 52f 51f
11:24 14 16 mph 1009.8mb 52f 51f
11:18 14 16 mph 1009.6mb 52f 52f
11:12 14 17 mph 1009.5mb 52f 52f
11:06 14 17 mph 1009.3mb 52f 52f
11:00 14 15 mph 1009.2mb 52f 52f
10:36 8 10 mph 1008.5mb 52f 51f
10:30 8 10 mph 1008.3mb 52f 51f
10:24 8 11 mph 1008.1mb 52f 51f
10:18 10 14 mph 1008.1mb 52f 51f
10:12 9 11 mph 1008mb 52f 51f
10:06 10 13 mph 1007.9mb 52f 51f
10:00 9 11 mph - - 51f
9:36 9 14 mph 1007.2mb 51f 51f
9:30 10 14 mph 1007.1mb 51f 50f
9:24 11 16 mph 1007mb 51f 50f
9:18 13 15 mph 1006.9mb 50f 50f
9:12 11 16 mph 1006.8mb 50f 50f
9:06 13 16 mph 1006.6mb 49f 50f
9:00 13 17 mph 1006.5mb 49f 50f
8:36 10 14 mph 1006mb 46f 50f
8:30 13 17 mph 1005.9mb 45f 50f
8:24 15 17 mph 1005.8mb 45f 50f
8:18 14 18 mph 1005.6mb 46f 50f
8:12 13 17 mph 1005.5mb 45f 50f
8:06 11 16 mph 1005.4mb 45f 50f
8:00 14 21 mph 1005.2mb 45f 50f
7:36 14 18 mph 1004.9mb 45f 50f
7:30 13 15 mph 1004.8mb 45f 50f
7:24 14 16 mph 1004.6mb 46f 50f
7:18 13 16 mph 1004.6mb 46f 50f
7:12 13 15 mph 1004.5mb 46f 50f
7:06 13 16 mph 1004.5mb 45f 49f
7:00 14 20 mph 1004.5mb 45f 50f
6:36 23 34 mph 1004.4mb 45f 51f
6:30 13 18 mph 1003.7mb 46f 51f
6:24 13 17 mph 1003.5mb 46f 52f
6:18 10 14 mph 1003.5mb 46f 52f
6:12 10 13 mph 1003.5mb 46f 52f
6:06 9 11 mph 1003.5mb 46f 52f
6:00 8 13 mph 1003.4mb 46f 52f
5:36 13 16 mph 1003.5mb 46f 52f
5:30 11 17 mph 1003.6mb 46f 51f
5:24 14 16 mph 1003.5mb 46f 51f
5:18 15 20 mph 1003.5mb 46f 51f
5:12 15 20 mph 1003.4mb 46f 51f
5:06 14 18 mph 1003.3mb 46f 51f
5:00 15 17 mph 1003.2mb 46f 51f
4:36 16 21 mph 1003.1mb 46f 52f
4:30 16 21 mph 1003mb 46f 52f
4:24 16 21 mph 1003mb 46f 51f
4:18 15 18 mph 1002.9mb 46f 51f
4:12 14 18 mph 1002.8mb 46f 51f
4:06 15 20 mph 1002.7mb 46f 51f
4:00 13 18 mph 1002.7mb 46f 51f
3:54 13 21 mph 1002.8mb 46f 51f
3:48 13 20 mph 1002.8mb 46f 52f
3:36 14 20 mph 1002.8mb 46f 52f
3:30 13 17 mph 1002.8mb 46f 52f
3:24 13 18 mph 1002.7mb 46f 51f
3:18 13 18 mph 1002.6mb 46f 51f
3:12 13 17 mph 1002.6mb 46f 51f
3:06 13 23 mph 1002.6mb 46f 52f
3:00 11 17 mph 1002.6mb 46f 52f
2:54 16 22 mph 1002.5mb 46f 52f
2:48 15 18 mph 1002.4mb 46f 51f
2:36 13 15 mph 1002.1mb 47f 51f
2:30 14 21 mph 1002.1mb 47f 52f
2:24 9 15 mph 1001.7mb 47f 52f
2:18 13 16 mph 1001.8mb 47f 52f
2:12 14 17 mph 1002mb 47f 52f
2:06 15 21 mph 1002mb 47f 52f
2:00 11 17 mph 1001.9mb 47f 52f
1:54 15 18 mph 1001.8mb 47f 52f
1:48 14 20 mph 1001.8mb 48f 52f
1:36 14 17 mph 1001.6mb 49f 52f
1:30 15 18 mph 1001.5mb 49f 52f
1:24 14 18 mph 1001.6mb 49f 52f
1:18 15 20 mph 1001.6mb 50f 52f
1:12 14 17 mph 1001.4mb 51f 52f
1:06 14 20 mph 1001.3mb 51f 52f
1:00 13 17 mph 1001.2mb 51f 52f
12:54 15 17 mph 1001.1mb 51f 52f
12:48 13 15 mph 1001mb 52f 52f
12:36 11 18 mph 1000.8mb 52f 52f
12:30 14 20 mph 1000.8mb 52f 52f
12:24 16 21 mph 1000.8mb 52f 52f
12:18 16 21 mph 1000.8mb 52f 52f
12:12 13 18 mph 1000.7mb 52f 52f
12:06 14 20 mph 1000.6mb 52f 51f
12:00 15 21 mph 1000.6mb 52f 51f
Sex 11/21 11:54 15 20 mph 1000.5mb 52f 52f
11:48 17 22 mph 1000.4mb 52f 51f
11:36 18 22 mph 1000.2mb 52f 52f
11:30 18 23 mph 1000mb 52f 51f
11:24 18 23 mph 1000mb 52f 51f
11:18 16 22 mph 999.7mb 52f 51f
11:12 20 22 mph 999.6mb 52f 51f
11:06 16 23 mph 999.5mb 52f 51f
11:00 18 23 mph 999.5mb 52f 51f
10:54 20 24 mph 999.4mb 52f 51f
10:48 20 25 mph 999.3mb 52f 51f
10:36 17 23 mph 999mb 52f 51f
10:30 18 23 mph 998.8mb 52f 51f
10:24 21 25 mph 998.8mb 51f 51f
10:18 17 23 mph 998.7mb 51f 51f
10:12 17 25 mph 998.5mb 51f 52f
10:06 18 23 mph 998.4mb 51f 51f
10:00 18 23 mph 998.3mb 51f 52f
9:54 17 22 mph 998.2mb 51f 51f
9:48 16 21 mph 998.1mb 51f 51f
9:36 14 21 mph 997.8mb 49f 51f
9:30 15 21 mph 997.7mb 49f 51f
9:24 14 16 mph 997.6mb 48f 51f
9:18 14 20 mph 997.5mb 47f 51f
9:12 14 21 mph 997.3mb 47f 51f
9:06 15 21 mph 997.3mb 47f 51f
9:00 13 22 mph 997.3mb 47f 51f
8:54 16 22 mph 997.2mb 47f 51f
8:48 14 22 mph 997mb 47f 51f
8:36 15 20 mph 996.9mb 47f 51f
8:30 18 22 mph 996.8mb 47f 51f
8:24 18 23 mph 997mb 47f 51f
8:18 20 25 mph 996.9mb 47f 51f
8:12 17 25 mph 996.6mb 47f 52f
8:06 17 23 mph 996.4mb 47f 52f
8:00 20 25 mph 996.4mb 47f 52f
7:54 16 22 mph 996.3mb 47f 52f
7:48 16 23 mph 996.2mb 47f 52f
7:36 18 24 mph 996mb 47f 52f
7:30 18 25 mph 995.9mb 47f 52f
7:24 18 22 mph 995.7mb 47f 52f
7:18 15 26 mph 995.5mb 47f 52f
7:12 16 21 mph 995.4mb 47f 52f
7:06 13 21 mph 995.2mb 47f 52f
7:00 15 20 mph 995mb 47f 52f
6:54 16 21 mph 994.9mb 47f 52f
6:48 16 22 mph 994.8mb 47f 52f
6:36 20 24 mph 994.6mb 47f 52f
6:30 17 22 mph 994.4mb 47f 52f
6:24 18 23 mph 994.3mb 47f 52f
6:18 16 21 mph 994.1mb 47f 53f
6:12 16 23 mph 994mb 47f 53f
6:06 18 25 mph 993.9mb 47f 52f
6:00 20 23 mph 993.8mb 47f 53f
5:54 20 25 mph 993.7mb 47f 52f
5:48 18 26 mph 993.6mb 47f 53f
5:36 20 24 mph 993.5mb 47f 52f
5:30 18 22 mph 993.3mb 47f 52f
5:24 16 22 mph 993.1mb 47f 52f
5:18 18 23 mph 993.1mb 47f 52f
5:12 18 26 mph 992.9mb 47f 52f
5:06 22 26 mph 992.8mb 47f 53f
5:00 16 21 mph 992.5mb 47f 53f
4:54 18 23 mph 992.4mb 47f 53f
4:48 16 22 mph 992.3mb 47f 53f
4:36 17 21 mph 992mb 47f 53f
4:30 13 18 mph 991.9mb 47f 53f
4:24 14 20 mph 991.8mb 47f 52f
4:18 15 20 mph 991.5mb 47f 52f
4:12 18 21 mph 991.6mb 48f 52f
4:06 16 21 mph 991.4mb 48f 52f
4:00 13 20 mph 991.4mb 48f 52f
3:54 8 22 mph 990.7mb 48f 52f
3:48 13 21 mph 990.8mb 48f 52f
3:36 15 24 mph 990.7mb 49f 51f
3:30 20 26 mph 990.7mb 49f 51f
3:24 17 29 mph 990.5mb 49f 51f
3:18 15 28 mph 990.8mb 49f 51f
3:12 21 36 mph 990.7mb 50f 51f
3:06 21 28 mph 990.3mb 50f 51f
3:00 16 28 mph 990.2mb 51f 51f
2:54 10 24 mph 990.1mb 51f 51f
2:48 11 23 mph 990.3mb 52f 51f
2:36 16 28 mph 990.5mb 52f 51f
2:30 14 29 mph 990.6mb 52f 51f
2:24 11 31 mph 990.8mb 52f 51f
2:18 16 25 mph 990.9mb 52f 51f
2:12 16 29 mph 990.9mb 52f 51f
2:06 16 30 mph 991.3mb 52f 51f
2:00 11 29 mph 991.6mb 52f 51f
1:54 16 29 mph 991.7mb 52f 51f
1:48 10 26 mph 991.9mb 52f 51f
1:36 11 22 mph 992.2mb 52f 51f
1:30 13 24 mph 992.4mb 52f 51f
1:24 10 22 mph 992.5mb 52f 51f
1:18 14 21 mph 992.6mb 52f 51f
1:12 15 24 mph 992.9mb 52f 51f
1:06 10 23 mph 993.2mb 52f 51f
1:00 14 24 mph 993.6mb 53f 51f
12:54 15 31 mph 993.9mb 53f 51f
12:48 15 30 mph 994.1mb 53f 51f
12:36 17 28 mph 994.5mb 53f 51f
12:30 13 22 mph 994.9mb 53f 51f
12:24 16 28 mph 995mb 53f 51f
12:18 13 22 mph 995mb 53f 51f
12:12 13 22 mph 995.4mb 53f 51f
12:06 13 18 mph 995.6mb 53f 51f
12:00 14 29 mph 995.8mb 53f 51f
11:54 10 24 mph 996mb 53f 51f
11:48 13 23 mph 996.4mb 53f 51f
11:36 14 24 mph 996.9mb 53f 51f
11:30 11 30 mph 997mb 53f 51f
11:24 17 23 mph 997.4mb 53f 51f
11:18 17 29 mph 997.6mb 53f 51f
11:12 14 33 mph 997.8mb 53f 51f
11:06 15 25 mph 998.1mb 53f 51f
11:00 21 32 mph 998.3mb 53f 51f
10:54 17 34 mph 998.4mb 53f 51f
10:48 16 28 mph 998.6mb 53f 51f
10:36 14 23 mph 998.8mb 53f 51f
10:30 14 28 mph 998.9mb 53f 51f
10:24 13 25 mph 999.2mb 53f 51f
10:18 14 22 mph 999.4mb 53f 51f
10:12 11 23 mph 999.4mb 53f 51f
10:06 18 26 mph 999.5mb 53f 51f
10:00 15 33 mph - - 51f
9:54 15 24 mph 999.8mb 53f 51f
9:48 16 24 mph 999.8mb 53f 51f
9:36 16 25 mph 1000.2mb 53f 51f
9:30 11 32 mph 1000.3mb 53f 51f
9:24 17 31 mph 1000.5mb 53f 51f
9:18 16 25 mph 1000.7mb 53f 52f
9:12 15 29 mph 1001mb 53f 52f
9:06 15 29 mph 1001mb 53f 52f
9:00 14 28 mph 1001.2mb 53f 51f
8:36 15 33 mph 1001.7mb 52f 51f
8:30 16 28 mph 1001.9mb 52f 52f
8:24 14 22 mph 1001.8mb 52f 52f
8:18 16 31 mph 1001.8mb 52f 52f
8:12 13 23 mph 1001.9mb 53f 52f
8:06 15 29 mph 1002.1mb 52f 52f
8:00 15 24 mph 1002.2mb 52f 52f
7:54 16 28 mph 1002.4mb 52f 52f
7:48 14 23 mph 1002.3mb 52f 52f
7:36 16 25 mph 1002.6mb 52f 52f
7:30 17 26 mph 1002.8mb 52f 52f
7:24 15 29 mph 1002.9mb 52f 52f
7:18 14 26 mph 1002.9mb 52f 53f
7:12 15 32 mph 1003mb 52f 53f
7:06 18 25 mph 1003.1mb 52f 53f
7:00 18 29 mph 1003.1mb 52f 53f
6:54 17 24 mph 1003.2mb 52f 52f
6:48 15 26 mph 1003.4mb 52f 52f
6:36 16 24 mph 1003.7mb 52f 52f
6:30 15 22 mph 1003.8mb 52f 52f
6:24 14 21 mph 1003.7mb 52f 52f
6:18 15 25 mph 1003.9mb 52f 52f
6:12 16 23 mph 1004mb 51f 52f
6:06 10 21 mph 1004.2mb 51f 52f
6:00 13 23 mph 1004.6mb 51f 52f
5:54 13 23 mph 1004.9mb 51f 52f
5:48 10 29 mph 1005mb 51f 52f
5:36 14 25 mph 1005.2mb 50f 53f
5:30 18 29 mph 1005.1mb 50f 52f
5:24 16 29 mph 1005.2mb 49f 52f
5:18 15 24 mph 1005.2mb 49f 52f
5:12 14 25 mph 1005.4mb 48f 52f
5:06 13 22 mph 1005.6mb 48f 53f
5:00 11 25 mph 1005.7mb 48f 53f
4:54 17 30 mph 1005.7mb 48f 52f
4:48 17 25 mph 1005.7mb 48f 52f
4:36 14 25 mph 1005.9mb 48f 52f
4:30 14 20 mph 1006.3mb 48f 52f
4:24 11 26 mph 1006.5mb 48f 52f
4:18 16 22 mph 1006.6mb 49f 52f
4:12 14 25 mph 1006.9mb 49f 52f
4:06 14 25 mph 1007.1mb 49f 52f
4:00 10 26 mph 1007.2mb 49f 52f
3:54 13 22 mph 1007.2mb 49f 52f
3:48 13 21 mph 1007.3mb 49f 52f
3:36 15 25 mph 1007.5mb 49f 52f
3:30 13 24 mph 1007.6mb 50f 52f
3:24 11 20 mph 1007.5mb 50f 52f
3:18 14 21 mph 1007.5mb 51f 52f
3:12 14 18 mph 1007.5mb 51f 52f
3:06 8 21 mph 1007.8mb 51f 52f
3:00 15 22 mph 1008mb 52f 52f
2:54 11 22 mph 1008.1mb 52f 52f
2:48 15 23 mph 1008.2mb 52f 52f
2:36 16 24 mph 1008.4mb 52f 51f
2:30 10 20 mph 1008.4mb 52f 51f
2:24 8 22 mph 1008.4mb 52f 51f
2:18 11 22 mph 1008.4mb 52f 52f
2:12 13 18 mph 1008.5mb 52f 52f
2:06 11 20 mph 1008.7mb 52f 52f
2:00 9 15 mph 1008.8mb 52f 52f
1:54 10 20 mph 1008.9mb 52f 52f
1:48 11 20 mph 1008.9mb 52f 52f
1:36 9 17 mph 1009mb 52f 52f
1:30 11 18 mph 1009mb 53f 52f
1:24 14 20 mph 1009mb 52f 51f
1:18 10 16 mph 1009mb 52f 51f
1:12 14 18 mph 1009mb 52f 51f
1:06 13 20 mph 1008.9mb 53f 51f
1:00 13 18 mph 1009mb 53f 51f
12:54 14 21 mph 1009.1mb 53f 51f
12:48 14 22 mph 1009.1mb 52f 51f
12:36 14 23 mph 1009mb 53f 51f
12:30 14 22 mph 1009.1mb 52f 51f
12:24 8 22 mph 1009.2mb 53f 51f
12:18 13 21 mph 1009.3mb 52f 51f
12:12 15 24 mph 1009.5mb 53f 51f
12:06 13 21 mph 1009.4mb 52f 51f
12:00 10 22 mph 1009.3mb 52f 51f
Qui 11/20 11:54 11 20 mph 1009.4mb 52f 51f
11:48 11 20 mph 1009.5mb 52f 51f
11:36 9 21 mph 1009.6mb 52f 51f
11:30 11 16 mph 1009.6mb 52f 51f
11:24 9 16 mph 1009.6mb 52f 51f
11:18 13 22 mph 1009.7mb 52f 51f
11:12 10 17 mph 1009.7mb 52f 51f
11:06 9 14 mph 1009.7mb 52f 51f
11:00 9 15 mph 1009.7mb 52f 51f
10:54 7 17 mph 1009.8mb 52f 51f
10:48 6 16 mph 1010mb 52f 51f
10:36 8 20 mph 1010.1mb 52f 51f
10:30 6 14 mph 1010.1mb 52f 51f
10:24 7 14 mph 1010.2mb 52f 52f
10:18 6 14 mph 1010.3mb 52f 52f
10:12 10 18 mph 1010.4mb 52f 52f
10:06 10 17 mph 1010.5mb 52f 52f
10:00 11 15 mph 1010.6mb 52f 52f
9:54 7 20 mph 1010.6mb 52f 52f
9:48 9 14 mph 1010.6mb 52f 52f
9:36 9 14 mph 1010.7mb 52f 52f
9:30 6 11 mph 1010.8mb 52f 52f
9:24 9 14 mph 1010.9mb 52f 51f
9:18 8 13 mph 1010.9mb 52f 52f
9:12 8 13 mph 1011mb 52f 51f
9:06 6 13 mph 1011mb 52f 51f
9:00 6 13 mph 1011.1mb 52f 51f
8:54 7 14 mph 1011.1mb 52f 51f
8:48 7 11 mph 1011.2mb 52f 51f
8:36 7 14 mph 1011.4mb 51f 51f
8:30 8 13 mph 1011.4mb 51f 51f
8:24 8 14 mph 1011.5mb 51f 51f
8:18 9 14 mph 1011.5mb 51f 51f
8:12 8 14 mph 1011.5mb 51f 51f
8:06 6 11 mph 1011.5mb 51f 51f
8:00 7 14 mph 1011.6mb 51f 52f
7:54 9 14 mph 1011.6mb 51f 52f
7:48 8 11 mph 1011.6mb 50f 52f
7:36 9 14 mph 1011.5mb 50f 52f
7:30 8 13 mph 1011.4mb 49f 51f
7:24 7 14 mph 1011.4mb 49f 51f
7:18 7 13 mph 1011.3mb 48f 51f
7:12 7 11 mph 1011.3mb 47f 51f
7:06 8 15 mph 1011.2mb 47f 51f
7:00 9 18 mph 1011.1mb 47f 51f
6:54 9 16 mph 1011.2mb 46f 51f
6:48 13 16 mph 1011.1mb 46f 51f
6:36 9 16 mph 1011.2mb 46f 51f
6:30 8 16 mph 1011.2mb 46f 51f
6:24 10 17 mph 1011.2mb 46f 51f
6:18 8 16 mph 1011.2mb 46f 51f
6:12 9 15 mph 1011.2mb 46f 51f
6:06 7 15 mph 1011.3mb 46f 51f
6:00 10 17 mph 1011.3mb 46f 52f
5:54 13 20 mph 1011.2mb 46f 52f
5:48 8 17 mph 1011.2mb 46f 52f
5:36 11 16 mph 1011.3mb 46f 52f
5:30 13 22 mph 1011.3mb 46f 52f
5:24 11 18 mph 1011.3mb 46f 52f
5:18 10 15 mph 1011.4mb 46f 52f
5:12 8 16 mph 1011.5mb 46f 52f
5:06 9 14 mph 1011.5mb 46f 52f
5:00 7 17 mph 1011.5mb 46f 52f
4:54 8 14 mph 1011.5mb 46f 52f
4:48 9 16 mph 1011.5mb 46f 51f
4:36 7 13 mph 1011.6mb 46f 51f
4:30 8 15 mph 1011.6mb 46f 51f
4:24 9 18 mph 1011.7mb 46f 51f
4:18 10 20 mph 1011.8mb 46f 51f
4:12 8 13 mph 1011.9mb 46f 51f
4:06 10 16 mph 1011.9mb 46f 51f
4:00 6 13 mph 1012mb 46f 51f
3:54 8 16 mph - - 51f
3:48 11 18 mph 1012.1mb 46f 51f
3:36 9 16 mph 1012mb 46f 51f
3:30 9 15 mph 1012.1mb 46f 51f
3:24 10 18 mph 1012.1mb 46f 51f
3:18 11 18 mph 1012mb 46f 51f
3:12 9 15 mph 1012.1mb 46f 52f
3:06 13 20 mph 1012mb 47f 52f
3:00 9 20 mph 1012mb 47f 52f
2:54 11 18 mph 1011.9mb 47f 52f
2:48 13 17 mph 1011.9mb 47f 52f
2:36 10 17 mph 1011.9mb 48f 52f
2:30 9 17 mph 1011.8mb 48f 51f
2:24 10 18 mph 1011.8mb 48f 51f
2:18 9 18 mph 1011.8mb 49f 51f
2:12 10 16 mph 1011.8mb 49f 51f
2:06 11 20 mph 1011.8mb 50f 51f
2:00 8 17 mph 1011.8mb 51f 51f
1:54 10 15 mph 1011.9mb 51f 51f
1:48 7 17 mph 1011.9mb 51f 51f
1:36 9 15 mph 1012mb 51f 51f
1:30 8 15 mph 1011.9mb 51f 51f
1:24 10 16 mph 1011.9mb 51f 51f
1:18 9 17 mph 1012mb 51f 52f
1:12 7 14 mph 1012mb 51f 51f
1:06 10 16 mph 1012.1mb 51f 51f
1:00 9 14 mph 1012.2mb 51f 51f
12:54 8 16 mph 1012.2mb 51f 52f
12:48 10 15 mph 1012.2mb 51f 51f
12:36 8 15 mph 1012.3mb 51f 51f
12:30 6 15 mph 1012.3mb 51f 51f
12:24 9 13 mph 1012.4mb 51f 51f
12:18 6 11 mph 1012.4mb 51f 51f
12:12 6 10 mph 1012.4mb 51f 51f
12:06 5 7 mph 1012.5mb 51f 51f
12:00 5 9 mph 1012.5mb 52f 51f
11:54 5 11 mph 1012.5mb 52f 52f
11:48 8 15 mph 1012.4mb 52f 52f
11:36 7 11 mph 1012.5mb 52f 52f
11:30 5 14 mph 1012.5mb 52f 52f
11:24 7 10 mph 1012.5mb 52f 52f
11:18 7 11 mph 1012.6mb 52f 52f
11:12 6 9 mph 1012.6mb 52f 52f
11:06 5 14 mph 1012.6mb 52f 51f
11:00 6 11 mph 1012.6mb 52f 51f
10:54 7 13 mph 1012.7mb 52f 51f
10:48 7 13 mph 1012.7mb 52f 51f
10:36 11 17 mph 1012.7mb 52f 51f
10:30 9 18 mph 1012.7mb 52f 51f
10:24 11 18 mph 1012.6mb 52f 51f
10:18 9 21 mph 1012.5mb 52f 51f
10:12 8 18 mph 1012.5mb 52f 51f
10:06 9 15 mph 1012.4mb 52f 51f
10:00 10 14 mph 1012.3mb 52f 51f
9:54 8 13 mph 1012.3mb 52f 51f
9:48 7 14 mph 1012.4mb 52f 51f
9:36 8 13 mph 1012.3mb 52f 51f
9:30 7 14 mph 1012.3mb 52f 51f
9:24 6 11 mph 1012.2mb 52f 51f
9:18 7 17 mph 1012.2mb 52f 51f
9:12 13 20 mph 1012.1mb 51f 51f
9:06 10 20 mph 1012.1mb 51f 51f
9:00 9 15 mph 1012.1mb 51f 51f
8:54 9 16 mph 1012.1mb 51f 51f
8:48 10 17 mph 1012.1mb 51f 51f
8:36 7 14 mph 1011.9mb 51f 51f
8:30 8 15 mph 1011.9mb 51f 51f
8:24 7 17 mph 1011.9mb 51f 51f
8:18 8 14 mph 1011.9mb 51f 51f
8:12 8 14 mph 1011.9mb 51f 51f
8:06 8 15 mph 1012mb 51f 51f
8:00 8 15 mph 1011.9mb 51f 51f
7:54 9 18 mph 1012mb 51f 51f
7:48 10 16 mph - - 51f
7:36 9 16 mph 1011.8mb 51f 51f
7:30 8 14 mph 1011.8mb 51f 52f
7:24 8 13 mph 1011.8mb 51f 52f
7:18 11 18 mph 1011.8mb 51f 52f
7:12 9 15 mph 1011.8mb 51f 52f
7:06 8 14 mph 1011.7mb 51f 52f
7:00 9 15 mph 1011.7mb 51f 52f
6:54 13 16 mph 1011.7mb 51f 51f
6:48 8 14 mph 1011.7mb 51f 51f
6:36 11 17 mph 1011.5mb 51f 51f
6:30 9 14 mph 1011.4mb 51f 51f
6:24 6 11 mph 1011.4mb 51f 51f
6:18 10 17 mph 1011.4mb 51f 52f
6:12 10 20 mph 1011.3mb 51f 52f
6:06 11 23 mph 1011.3mb 51f 52f
6:00 14 18 mph 1011.3mb 51f 51f
5:54 9 15 mph 1011.2mb 51f 51f
5:48 10 17 mph 1011.2mb 51f 51f
5:36 9 16 mph 1011.2mb 50f 51f
5:30 11 17 mph 1011.1mb 50f 51f
5:24 10 16 mph 1011.1mb 50f 51f
5:18 8 14 mph 1011mb 49f 51f
5:12 9 18 mph 1010.9mb 49f 51f
5:06 10 20 mph 1010.8mb 48f 51f
5:00 13 23 mph 1010.7mb 48f 52f
4:54 15 24 mph 1010.8mb 48f 52f
4:48 13 22 mph 1010.7mb 47f 52f
4:36 13 18 mph 1010.6mb 47f 52f
4:30 13 18 mph 1010.6mb 47f 51f
4:24 13 21 mph 1010.6mb 46f 52f
4:18 14 23 mph 1010.5mb 46f 52f
4:12 13 17 mph 1010.4mb 46f 51f
4:06 11 20 mph 1010.3mb 46f 51f
4:00 15 22 mph 1010.3mb 46f 51f
3:54 13 21 mph 1010.3mb 46f 51f
3:48 13 18 mph 1010.2mb 46f 51f
3:36 11 20 mph 1010.2mb 46f 51f
3:30 13 20 mph 1010.1mb 46f 51f
3:24 13 18 mph 1010mb 47f 51f
3:18 13 18 mph 1010mb 47f 51f
3:12 14 22 mph 1009.9mb 47f 51f
3:06 11 18 mph 1009.8mb 48f 51f
3:00 11 21 mph 1009.8mb 48f 51f
2:54 14 24 mph 1009.8mb 49f 51f
2:48 15 23 mph 1009.7mb 50f 51f
2:36 18 25 mph 1009.6mb 51f 51f
2:30 13 18 mph 1009.5mb 51f 51f
2:24 13 21 mph 1009.4mb 51f 50f
2:18 10 20 mph 1009.3mb 51f 50f
2:12 13 20 mph 1009.2mb 51f 50f
2:06 15 22 mph 1009.1mb 51f 50f
2:00 11 20 mph 1009mb 51f 50f
1:54 13 18 mph 1008.9mb 51f 50f
1:48 11 20 mph 1008.9mb 51f 50f
1:36 14 24 mph 1008.8mb 51f 50f
1:30 15 31 mph 1008.7mb 51f 50f
1:24 15 28 mph 1008.6mb 52f 50f
1:18 17 25 mph 1008.5mb 52f 50f
1:12 14 25 mph 1008.5mb 52f 50f
1:06 15 24 mph 1008.5mb 52f 50f
1:00 14 29 mph 1008.4mb 52f 50f
12:54 15 28 mph 1008.3mb 52f 50f
12:48 17 28 mph 1008.1mb 52f 51f
12:36 15 25 mph 1008mb 52f 50f
12:30 14 25 mph 1008mb 52f 51f
12:24 14 25 mph 1007.9mb 52f 50f
12:18 8 23 mph 1007.9mb 52f 51f
12:12 11 26 mph 1007.8mb 52f 51f
12:06 11 22 mph 1007.7mb 52f 51f
12:00 11 18 mph 1007.6mb 52f 51f
Qua 11/19 11:54 8 16 mph 1007.5mb 52f 52f
11:48 13 17 mph 1007.5mb 52f 52f
11:36 8 18 mph 1007.4mb 52f 53f
11:30 9 18 mph 1007.3mb 52f 53f
11:24 10 21 mph 1007.3mb 52f 53f
11:18 9 17 mph 1007.2mb 51f 54f
11:12 14 24 mph 1007.2mb 51f 55f
11:06 14 22 mph 1007.1mb 51f 55f
11:00 11 28 mph 1007.1mb 51f 55f
10:54 10 18 mph 1007.1mb 51f 55f
10:48 7 20 mph 1007.2mb 51f 55f
10:36 10 21 mph 1007.2mb 51f 55f
10:30 10 15 mph 1007.1mb 51f 55f
10:24 8 14 mph 1007.1mb 51f 56f
10:18 8 13 mph 1007.2mb 51f 55f
10:12 6 9 mph 1007.1mb 51f 56f
10:06 6 15 mph 1007.2mb 51f 56f
10:00 8 14 mph 1007.2mb 51f 55f
9:54 7 18 mph 1007.2mb 51f 56f
9:48 11 17 mph 1007.1mb 51f 56f
9:36 8 20 mph 1007.2mb 51f 55f
9:30 11 21 mph 1007.2mb 51f 56f
9:24 11 21 mph 1007.2mb 51f 55f
9:18 9 14 mph 1007.2mb 51f 55f
9:12 13 22 mph 1007.2mb 51f 55f
9:06 11 16 mph 1007.2mb 51f 53f
9:00 8 11 mph 1007.1mb 51f 53f
8:54 8 14 mph 1007.2mb 51f 51f
8:48 6 10 mph 1007.3mb 51f 49f
8:36 6 10 mph 1007.4mb 51f 49f
8:30 6 10 mph 1007.4mb 51f 47f
8:24 7 9 mph 1007.5mb 51f 47f
8:18 7 9 mph 1007.6mb 51f 47f
8:12 7 9 mph 1007.6mb 51f 47f
8:06 7 9 mph 1007.7mb 51f 47f
8:00 8
mph
1007.8mb 51f 47f
7:54 7 9 mph 1007.7mb 51f 47f
7:48 7 9 mph 1007.7mb 51f 47f
7:36 8 9 mph 1007.6mb 51f 48f
7:30 7 9 mph 1007.5mb 50f 48f
7:24 7 10 mph 1007.6mb 50f 48f
7:18 7 8 mph 1007.6mb 50f 48f
7:12 8 10 mph 1007.6mb 50f 48f
7:06 7 8 mph 1007.5mb 50f 48f
7:00 6 8 mph 1007.5mb 50f 48f
6:54 6 9 mph 1007.5mb 49f 48f
6:48 6 8 mph 1007.5mb 49f 48f
6:36 7 9 mph 1007.5mb 48f 48f
6:30 7 10 mph 1007.5mb 48f 48f
6:24 7 10 mph 1007.5mb 48f 49f
6:18 9 11 mph - - 48f
6:12 6 10 mph 1007.5mb 47f 48f
6:06 6 10 mph 1007.5mb 46f 49f
6:00 7 10 mph 1007.4mb 46f 49f
5:54 6 10 mph 1007.4mb 45f 49f
5:48 6 11 mph 1007.3mb 45f 49f
5:36 8 10 mph 1007.4mb 45f 49f
5:30 6 9 mph 1007.4mb 45f 49f
5:24 6 10 mph 1007.5mb 45f 50f
5:18 7 9 mph 1007.5mb 45f 50f
5:12 6 9 mph 1007.5mb 45f 50f
5:06 6 7 mph 1007.6mb 45f 50f
5:00 6 8 mph 1007.6mb 45f 50f
4:54 6 8 mph 1007.6mb 45f 50f
4:48 5 7 mph 1007.6mb 45f 50f
4:36 2 3 mph - - 50f
4:30 2 5 mph 1007.7mb 45f 51f
4:24 3 5 mph 1007.7mb 44f 51f
4:18 3 5 mph 1007.7mb 44f 52f
4:12 2 3 mph 1007.7mb 44f 52f
4:06 2
mph
1007.8mb 44f 53f
4:00 2
mph
1007.8mb 44f 53f
3:54 1 2 mph 1007.9mb 44f 53f
3:48  -  1 mph 1007.9mb 44f 53f
3:36 2 3 mph 1008.1mb 44f 53f
3:30 2 3 mph 1008.1mb 44f 53f
3:24 1 2 mph 1008.1mb 44f 53f
3:18  -  3 mph 1008mb 44f 53f
3:12 3 5 mph 1008.1mb 44f 53f
3:06 3 6 mph 1008mb 45f 53f
3:00 3 5 mph 1008mb 45f 54f
2:54 2
mph
1007.9mb 45f 53f
2:48 1 2 mph 1008mb 46f 53f
2:36 2 6 mph 1008mb 47f 53f
2:30 6 8 mph 1008.1mb 47f 53f
2:24 9 11 mph 1008.2mb 47f 54f
2:18 9 13 mph 1008.2mb 48f 56f
2:12 7 9 mph 1008.2mb 49f 56f
2:06 6 9 mph 1007.9mb 49f 56f
2:00 6 10 mph 1007.8mb 50f 56f
1:54 8 10 mph 1007.8mb 51f 55f
1:48 7 9 mph 1007.8mb 51f 55f
1:36 8 10 mph 1007.7mb 51f 55f
1:30 8 10 mph 1007.8mb 51f 55f
1:24 7 11 mph 1007.9mb 51f 55f
1:18 8 13 mph 1007.9mb 51f 54f
1:12 9 11 mph 1008mb 51f 54f
1:06 9 13 mph 1008.1mb 51f 54f
1:00 9 13 mph 1008.2mb 51f 53f
12:54 8 11 mph 1008.3mb 51f 53f
12:48 9 11 mph 1008.4mb 51f 53f
12:36 9 13 mph 1008.7mb 51f 53f
12:30 9 14 mph 1008.8mb 51f 53f
12:24 9 13 mph 1008.9mb 51f 52f
12:18 9 13 mph 1009mb 51f 52f
12:12 9 11 mph 1009.1mb 51f 52f
12:06 9 13 mph 1009.2mb 51f 51f